Time;durP1;ratioP1;P1;durP2;ratioP2;P2;SDS_P1;SDS_P2;PMS_P1;PMS_P2;Temp;Humidity;BMP_temperature;BMP_pressure;BME280_temperature;BME280_humidity;BME280_pressure;Samples;Min_cycle;Max_cycle;Signal;HPM_P1;HPM_P2
2022/03/03 00:01:12;;;;;;;;;;;;;;;-1.16;71.77;101092.59;5000563;28;1319;-90
2022/03/03 00:03:37;;;;;;;;;;;;;;;-1.15;71.77;101080.00;5000745;28;1280;-90
2022/03/03 00:06:02;;;;;;;;;;;;;;;-1.13;71.73;101082.50;5000264;28;1196;-90
2022/03/03 00:08:27;;;;;;;;;;;;;;;-1.29;71.56;101087.09;5000528;28;712;-89
2022/03/03 00:10:52;;;;;;;;;;;;;;;-1.37;71.68;101092.56;5000109;28;1335;-90
2022/03/03 00:13:18;;;;;;;;;;;;;;;-1.34;71.89;101081.44;5000238;28;1008;-90
2022/03/03 00:15:43;;;;;;;;;;;;;;;-1.30;71.79;101077.38;5000201;28;1314;-90
2022/03/03 00:18:08;;;;;;;;;;;;;;;-1.29;71.38;101062.94;4999934;28;1944;-90
2022/03/03 00:20:33;;;;;;;;;;;;;;;-1.41;71.73;101066.28;5000277;28;1323;-90
2022/03/03 00:22:58;;;;;;;;;;;;;;;-1.40;71.77;101065.25;5017525;28;827;-90
2022/03/03 00:25:23;;;;;;;;;;;;;;;-1.41;71.91;101058.22;4999826;28;1302;-90
2022/03/03 00:27:49;;;;;;;;;;;;;;;-1.53;71.83;101055.19;5000213;28;1222;-90
2022/03/03 00:30:14;;;;;;;;;;;;;;;-1.89;72.27;101051.63;4999851;28;1368;-90
2022/03/03 00:32:40;;;;;;;;;;;;;;;-1.79;72.78;101046.81;5000381;28;1327;-89
2022/03/03 00:35:05;;;;;;;;;;;;;;;-1.60;73.02;101043.53;4999627;28;1268;-90
2022/03/03 00:37:30;;;;;;;;;;;;;;;-1.64;72.61;101047.63;4999863;28;1955;-89
2022/03/03 00:39:56;;;;;;;;;;;;;;;-1.56;72.45;101042.16;4999869;28;1079;-90
2022/03/03 00:42:21;;;;;;;;;;;;;;;-1.53;72.89;101029.16;4999971;28;1351;-90
2022/03/03 00:44:46;;;;;;;;;;;;;;;-1.55;72.80;101031.22;4999712;28;1290;-90
2022/03/03 00:47:11;;;;;;;;;;;;;;;-1.55;72.96;101027.72;5017334;28;692;-90
2022/03/03 00:49:36;;;;;;;;;;;;;;;-1.53;72.84;101031.00;4999820;28;1280;-89
2022/03/03 00:52:01;;;;;;;;;;;;;;;-1.49;73.14;101034.16;5010441;28;1051;-90
2022/03/03 00:54:26;;;;;;;;;;;;;;;-1.42;72.90;101030.53;5011338;28;1347;-90
2022/03/03 00:56:52;;;;;;;;;;;;;;;-1.47;72.69;101019.53;5006242;28;1263;-90
2022/03/03 00:59:17;;;;;;;;;;;;;;;-1.51;73.22;101023.63;4999503;28;1958;-90
2022/03/03 01:01:42;;;;;;;;;;;;;;;-1.39;73.08;101021.28;4999412;28;1053;-90
2022/03/03 01:04:08;;;;;;;;;;;;;;;-1.48;73.30;101017.88;4999317;28;1486;-90
2022/03/03 01:06:33;;;;;;;;;;;;;;;-1.56;73.36;101009.94;4999171;28;1264;-90
2022/03/03 01:08:58;;;;;;;;;;;;;;;-1.45;73.06;101005.94;4999449;28;1188;-90
2022/03/03 01:11:23;;;;;;;;;;;;;;;-1.44;73.17;101000.34;4999156;28;826;-90
2022/03/03 01:13:48;;;;;;;;;;;;;;;-1.42;73.37;100997.50;4999249;28;1031;-90
2022/03/03 01:16:14;;;;;;;;;;;;;;;-1.43;72.97;100991.28;4999117;28;1450;-90
2022/03/03 01:18:39;;;;;;;;;;;;;;;-1.62;73.09;100992.75;4998895;28;1894;-90
2022/03/03 01:21:05;;;;;;;;;;;;;;;-1.64;73.56;100992.09;4999234;28;1304;-90
2022/03/03 01:23:30;;;;;;;;;;;;;;;-1.64;73.64;100999.31;4999025;28;976;-90
2022/03/03 01:25:55;;;;;;;;;;;;;;;-1.68;73.24;100995.34;5016267;28;1161;-90
2022/03/03 01:28:20;;;;;;;;;;;;;;;-1.75;73.01;100999.78;4999109;28;1319;-90
2022/03/03 01:30:45;;;;;;;;;;;;;;;-1.91;73.49;101001.69;4998672;28;1284;-90
2022/03/03 01:33:12;;;;;;;;;;;;;;;-1.86;73.47;101008.31;4998519;28;1177;-91
2022/03/03 01:35:37;;;;;;;;;;;;;;;-1.78;73.53;101017.09;4998734;28;1402;-90
2022/03/03 01:38:02;;;;;;;;;;;;;;;-1.75;74.09;101007.84;4998537;28;1898;-90
2022/03/03 01:40:28;;;;;;;;;;;;;;;-1.71;73.69;101009.16;4998783;28;937;-90
2022/03/03 01:42:53;;;;;;;;;;;;;;;-1.80;73.86;101011.09;4998806;28;1351;-90
2022/03/03 01:45:18;;;;;;;;;;;;;;;-1.72;73.72;101010.16;4998599;28;1267;-90
2022/03/03 01:47:43;;;;;;;;;;;;;;;-1.66;73.70;101012.09;5015991;28;1011;-90
2022/03/03 01:50:09;;;;;;;;;;;;;;;-1.83;73.78;100997.22;4998785;28;827;-90
2022/03/03 01:52:34;;;;;;;;;;;;;;;-2.08;73.98;101002.91;4998406;28;1134;-91
2022/03/03 01:54:59;;;;;;;;;;;;;;;-1.99;74.53;101003.63;4998393;28;1455;-91
2022/03/03 01:57:24;;;;;;;;;;;;;;;-1.85;74.16;101004.63;4998355;28;1894;-91
2022/03/03 01:59:49;;;;;;;;;;;;;;;-1.84;74.16;101007.13;4998243;28;1189;-91
2022/03/03 02:02:15;;;;;;;;;;;;;;;-1.85;74.76;100999.25;4998312;28;1327;-90
2022/03/03 02:04:40;;;;;;;;;;;;;;;-1.85;74.36;101007.31;4998122;28;1288;-90
2022/03/03 02:07:07;;;;;;;;;;;;;;;-1.93;74.30;100994.81;4998155;28;1424;-91
2022/03/03 02:09:32;;;;;;;;;;;;;;;-1.88;74.43;100988.91;4998321;28;1232;-90
2022/03/03 02:11:57;;;;;;;;;;;;;;;-1.89;74.57;100990.75;4997953;28;1184;-90
2022/03/03 02:14:22;;;;;;;;;;;;;;;-2.10;74.66;100986.16;4997952;28;1016;-90
2022/03/03 02:16:48;;;;;;;;;;;;;;;-2.14;74.67;100981.34;4997349;28;1280;-90
2022/03/03 02:19:17;;;;;;;;;;;;;;;-2.31;74.25;100983.41;4998230;28;1898;-90
2022/03/03 02:21:43;;;;;;;;;;;;;;;-2.33;74.69;100980.06;4997914;28;1228;-89
2022/03/03 02:24:08;;;;;;;;;;;;;;;-2.32;74.55;100973.69;4997768;28;1265;-90
2022/03/03 02:26:34;;;;;;;;;;;;;;;-2.20;74.91;100963.31;4997594;28;1189;-90
2022/03/03 02:28:59;;;;;;;;;;;;;;;-2.14;74.81;100959.91;4997798;28;1282;-90
2022/03/03 02:31:24;;;;;;;;;;;;;;;-2.43;74.53;100953.53;4997749;28;890;-90
2022/03/03 02:33:49;;;;;;;;;;;;;;;-2.31;74.88;100959.28;4997943;28;1053;-90
2022/03/03 02:36:18;;;;;;;;;;;;;;;-2.24;75.15;100956.66;4997667;28;1260;-90
2022/03/03 02:38:44;;;;;;;;;;;;;;;-2.25;74.73;100950.47;4997703;28;1954;-90
2022/03/03 02:41:09;;;;;;;;;;;;;;;-2.32;75.01;100949.56;5015300;28;983;-90
2022/03/03 02:43:34;;;;;;;;;;;;;;;-2.43;75.04;100953.53;4997372;28;1336;-90
2022/03/03 02:46:04;;;;;;;;;;;;;;;-2.34;74.90;100948.91;4997505;28;1210;-90
2022/03/03 02:48:29;;;;;;;;;;;;;;;-2.21;75.05;100951.75;4997335;28;1189;-91
2022/03/03 02:50:54;;;;;;;;;;;;;;;-2.09;75.44;100957.47;4997372;28;952;-91
2022/03/03 02:53:19;;;;;;;;;;;;;;;-2.07;75.40;100958.13;4997348;28;1028;-91
2022/03/03 02:55:44;;;;;;;;;;;;;;;-2.05;74.95;100956.94;4997573;28;1190;-91
2022/03/03 02:58:11;;;;;;;;;;;;;;;-2.02;75.32;100948.50;4997210;28;1893;-90
2022/03/03 03:00:42;;;;;;;;;;;;;;;-2.08;74.98;100948.41;4997266;28;1402;-91
2022/03/03 03:03:08;;;;;;;;;;;;;;;-2.15;75.20;100951.03;4999345;28;1435;-90
2022/03/03 03:05:33;;;;;;;;;;;;;;;-2.16;75.53;100948.53;5000103;28;1418;-91
2022/03/03 03:07:58;;;;;;;;;;;;;;;-2.31;75.17;100952.06;4997800;28;1216;-89
2022/03/03 03:10:23;;;;;;;;;;;;;;;-2.32;75.71;100949.56;4997811;28;706;-90
2022/03/03 03:12:56;;;;;;;;;;;;;;;-2.19;75.51;100951.56;4996854;28;1153;-89
2022/03/03 03:15:21;;;;;;;;;;;;;;;-2.15;75.72;100950.19;4996762;28;1344;-89
2022/03/03 03:17:46;;;;;;;;;;;;;;;-2.17;75.77;100941.50;4996778;28;1893;-90
2022/03/03 03:20:12;;;;;;;;;;;;;;;-2.19;75.53;100943.53;5014447;28;727;-90
2022/03/03 03:22:37;;;;;;;;;;;;;;;-2.28;75.60;100940.94;4996884;28;1332;-89
2022/03/03 03:25:04;;;;;;;;;;;;;;;-2.25;75.57;100952.31;4996880;28;1398;-90
2022/03/03 03:27:29;;;;;;;;;;;;;;;-2.29;75.85;100957.22;4996673;28;1248;-90
2022/03/03 03:29:54;;;;;;;;;;;;;;;-2.33;75.64;100955.94;4996230;28;1224;-90
2022/03/03 03:32:19;;;;;;;;;;;;;;;-2.58;76.11;100928.59;4996701;28;984;-89
2022/03/03 03:34:44;;;;;;;;;;;;;;;-2.53;76.15;100962.84;4996908;28;1300;-90
2022/03/03 03:37:10;;;;;;;;;;;;;;;-2.68;76.23;100977.06;4996656;28;1276;-90
2022/03/03 03:39:35;;;;;;;;;;;;;;;-2.68;76.57;100976.25;4996585;28;1974;-90
2022/03/03 03:42:00;;;;;;;;;;;;;;;-2.63;76.58;100973.00;4996581;28;1158;-91
2022/03/03 03:44:25;;;;;;;;;;;;;;;-2.81;76.29;100973.38;4996680;28;1180;-90
2022/03/03 03:46:50;;;;;;;;;;;;;;;-2.79;76.85;100971.31;4996330;28;1213;-90
2022/03/03 03:49:15;;;;;;;;;;;;;;;-2.68;76.75;100965.53;4996192;28;1229;-91
2022/03/03 03:51:41;;;;;;;;;;;;;;;-2.64;76.52;100960.66;4996568;28;1220;-91
2022/03/03 03:54:06;;;;;;;;;;;;;;;-2.53;76.89;100949.44;4996645;28;1266;-91
2022/03/03 03:56:31;;;;;;;;;;;;;;;-2.64;76.69;100947.25;4996447;28;1261;-91
2022/03/03 03:58:56;;;;;;;;;;;;;;;-2.84;76.42;100946.94;4996402;28;1894;-91
2022/03/03 04:01:21;;;;;;;;;;;;;;;-3.16;76.57;100950.75;4996779;28;1174;-90
2022/03/03 04:03:47;;;;;;;;;;;;;;;-3.14;76.71;100949.53;4996630;28;1189;-90
2022/03/03 04:06:12;;;;;;;;;;;;;;;-3.03;76.55;100947.44;5013850;28;1241;-90
2022/03/03 04:08:37;;;;;;;;;;;;;;;-3.01;76.75;100946.25;4996384;28;1205;-91
2022/03/03 04:11:02;;;;;;;;;;;;;;;-2.98;76.51;100951.25;4996301;28;1245;-90
2022/03/03 04:13:28;;;;;;;;;;;;;;;-2.97;76.70;100947.53;4996483;28;1370;-90
2022/03/03 04:15:53;;;;;;;;;;;;;;;-2.94;76.76;100954.41;4996148;28;1616;-90
2022/03/03 04:18:19;;;;;;;;;;;;;;;-2.96;76.66;100949.22;4996375;28;1906;-90
2022/03/03 04:20:44;;;;;;;;;;;;;;;-2.90;76.64;100958.38;4996489;28;1391;-90
2022/03/03 04:23:09;;;;;;;;;;;;;;;-3.06;76.41;100956.66;4996350;28;1339;-90
2022/03/03 04:25:35;;;;;;;;;;;;;;;-3.15;76.88;100955.09;5014351;22;3803;-89
2022/03/03 04:28:02;;;;;;;;;;;;;;;-3.10;77.00;100944.66;5053984;28;805;-89
2022/03/03 04:30:27;;;;;;;;;;;;;;;-3.05;77.11;100951.13;5069236;28;1314;-88
2022/03/03 04:32:52;;;;;;;;;;;;;;;-3.13;77.02;100945.84;5052331;28;1188;-89
2022/03/03 04:35:17;;;;;;;;;;;;;;;-3.11;76.84;100938.47;5068703;28;1205;-88
2022/03/03 04:37:42;;;;;;;;;;;;;;;-3.10;76.57;100932.13;5052455;28;1976;-89
2022/03/03 04:40:08;;;;;;;;;;;;;;;-3.19;76.68;100932.38;5055215;28;1058;-89
2022/03/03 04:42:33;;;;;;;;;;;;;;;-3.08;77.10;100934.63;5056077;28;1198;-89
2022/03/03 04:44:58;;;;;;;;;;;;;;;-3.08;76.92;100939.97;5055961;28;1164;-88
2022/03/03 04:47:24;;;;;;;;;;;;;;;-3.19;77.15;100925.16;5056077;28;1350;-89
2022/03/03 04:49:51;;;;;;;;;;;;;;;-3.24;76.85;100924.06;5056185;28;1270;-89
2022/03/03 04:52:16;;;;;;;;;;;;;;;-3.19;77.04;100919.81;5055951;28;1208;-88
2022/03/03 04:54:42;;;;;;;;;;;;;;;-3.25;76.97;100920.53;5055909;28;1271;-88
2022/03/03 04:57:07;;;;;;;;;;;;;;;-3.45;77.55;100922.88;5055649;28;1215;-89
2022/03/03 04:59:32;;;;;;;;;;;;;;;-3.39;77.46;100912.44;5055452;28;1894;-89
2022/03/03 05:01:57;;;;;;;;;;;;;;;-3.21;77.46;100926.34;5055659;28;1203;-89
2022/03/03 05:04:22;;;;;;;;;;;;;;;-3.27;77.47;100917.22;5055270;28;1280;-88
2022/03/03 05:06:49;;;;;;;;;;;;;;;-3.26;77.62;100918.88;5055424;28;1467;-88
2022/03/03 05:09:14;;;;;;;;;;;;;;;-3.27;77.49;100916.38;5057211;28;849;-88
2022/03/03 05:11:39;;;;;;;;;;;;;;;-3.39;77.05;100928.50;5056588;28;1337;-88
2022/03/03 05:14:05;;;;;;;;;;;;;;;-3.40;77.26;100930.34;5054526;28;1321;-88
2022/03/03 05:16:30;;;;;;;;;;;;;;;-3.64;77.46;100942.06;5036178;28;1267;-88
2022/03/03 05:18:55;;;;;;;;;;;;;;;-3.70;77.93;100945.47;5037823;28;1961;-88
2022/03/03 05:21:20;;;;;;;;;;;;;;;-3.65;78.11;100945.75;5055228;28;1035;-89
2022/03/03 05:23:45;;;;;;;;;;;;;;;-3.49;77.92;100942.94;5055470;28;1597;-89
2022/03/03 05:26:11;;;;;;;;;;;;;;;-3.41;77.63;100944.75;5057065;28;1235;-89
2022/03/03 05:28:36;;;;;;;;;;;;;;;-3.44;77.59;100943.28;5056297;28;1312;-88
2022/03/03 05:31:01;;;;;;;;;;;;;;;-3.37;77.33;100938.03;5055822;28;1233;-88
2022/03/03 05:33:26;;;;;;;;;;;;;;;-3.31;77.78;100928.44;5055096;28;1468;-89
2022/03/03 05:35:58;;;;;;;;;;;;;;;-3.34;77.46;100928.81;5068678;28;1451;-90
2022/03/03 05:38:28;;;;;;;;;;;;;;;-3.38;77.70;100925.66;5068286;28;1871;-89
2022/03/03 05:40:54;;;;;;;;;;;;;;;-3.39;77.50;100931.19;5055737;28;1294;-89
2022/03/03 05:43:27;;;;;;;;;;;;;;;-3.48;77.62;100933.09;5054642;28;1140;-89
2022/03/03 05:46:02;;;;;;;;;;;;;;;-3.72;77.67;100930.59;5054619;28;1360;-89
2022/03/03 05:48:28;;;;;;;;;;;;;;;-3.74;77.49;100940.66;5035954;28;1264;-90
2022/03/03 05:50:54;;;;;;;;;;;;;;;-3.90;77.76;100938.88;5034060;28;1350;-89
2022/03/03 05:53:19;;;;;;;;;;;;;;;-3.89;77.71;100937.88;5050512;28;1663;-89
2022/03/03 05:55:52;;;;;;;;;;;;;;;-3.77;77.93;100938.31;5055009;28;1470;-88
2022/03/03 05:58:21;;;;;;;;;;;;;;;-3.94;77.66;100943.75;5053750;28;1894;-88
2022/03/03 06:00:47;;;;;;;;;;;;;;;-4.11;77.82;100938.69;5036551;28;1228;-88
2022/03/03 06:03:14;;;;;;;;;;;;;;;-4.01;78.19;100940.13;5053924;28;1298;-87
2022/03/03 06:06:07;;;;;;;;;;;;;;;-4.01;78.07;100948.16;5055113;28;1361;-88
2022/03/03 06:08:41;;;;;;;;;;;;;;;-4.04;78.12;100944.97;5038252;28;1314;-88
2022/03/03 06:11:10;;;;;;;;;;;;;;;-3.96;78.19;100953.78;5053753;28;1309;-89
2022/03/03 06:13:38;;;;;;;;;;;;;;;-3.82;77.94;100945.00;5053731;28;1310;-88
2022/03/03 06:16:03;;;;;;;;;;;;;;;-3.77;77.95;100951.69;5054829;28;1373;-89
2022/03/03 06:18:32;;;;;;;;;;;;;;;-3.74;77.66;100949.47;5054906;28;1894;-88
2022/03/03 06:20:57;;;;;;;;;;;;;;;-3.82;77.93;100952.19;5053193;28;1638;-88
2022/03/03 06:23:23;;;;;;;;;;;;;;;-3.78;77.87;100950.03;5053368;28;1276;-88
2022/03/03 06:25:51;;;;;;;;;;;;;;;-3.92;77.77;100963.16;5053258;28;1334;-88
2022/03/03 06:28:16;;;;;;;;;;;;;;;-3.76;77.98;100972.09;5053788;28;1180;-89
2022/03/03 06:30:41;;;;;;;;;;;;;;;-3.61;78.01;100976.50;5054709;28;983;-88
2022/03/03 06:33:06;;;;;;;;;;;;;;;-3.59;77.81;100979.00;5053152;28;1227;-88
2022/03/03 06:35:36;;;;;;;;;;;;;;;-3.52;77.89;100980.78;5053353;28;1333;-88
2022/03/03 06:38:03;;;;;;;;;;;;;;;-3.44;77.71;100980.72;5053270;28;1902;-88
2022/03/03 06:40:28;;;;;;;;;;;;;;;-3.44;77.75;100979.91;5060064;28;1274;-88
2022/03/03 06:42:56;;;;;;;;;;;;;;;-3.32;77.47;100975.81;5052904;28;1969;-90
2022/03/03 06:45:25;;;;;;;;;;;;;;;-3.29;77.47;100977.28;5053175;28;1219;-87
2022/03/03 06:47:53;;;;;;;;;;;;;;;-3.25;77.33;100970.56;5053686;28;1435;-88
2022/03/03 06:50:19;;;;;;;;;;;;;;;-3.45;77.40;100956.81;5054514;28;813;-88
2022/03/03 06:52:46;;;;;;;;;;;;;;;-3.37;77.44;100950.56;5053009;28;1219;-88
2022/03/03 06:55:13;;;;;;;;;;;;;;;-3.32;77.46;100951.72;5053222;28;1156;-88
2022/03/03 06:57:39;;;;;;;;;;;;;;;-3.22;77.67;100954.97;5052778;28;1901;-88
2022/03/03 07:00:05;;;;;;;;;;;;;;;-3.16;77.63;100946.22;5054426;28;797;-89
2022/03/03 07:02:31;;;;;;;;;;;;;;;-3.14;77.86;100954.91;5054003;28;872;-89
2022/03/03 07:04:56;;;;;;;;;;;;;;;-3.10;77.74;100944.66;5053071;28;1238;-89
2022/03/03 07:07:22;;;;;;;;;;;;;;;-3.13;77.59;100945.84;5054176;28;1267;-89
2022/03/03 07:09:48;;;;;;;;;;;;;;;-3.10;77.86;100942.81;5053343;28;1219;-89
2022/03/03 07:12:15;;;;;;;;;;;;;;;-3.00;77.63;100939.91;5052940;28;1149;-89
2022/03/03 07:14:40;;;;;;;;;;;;;;;-2.95;77.64;100947.38;5052872;28;1248;-89
2022/03/03 07:17:08;;;;;;;;;;;;;;;-2.91;77.34;100940.66;5052954;28;1345;-89
2022/03/03 07:19:37;;;;;;;;;;;;;;;-2.89;77.59;100950.16;5052894;28;1902;-89
2022/03/03 07:22:07;;;;;;;;;;;;;;;-2.79;77.90;100956.09;5052928;28;1219;-89
2022/03/03 07:24:34;;;;;;;;;;;;;;;-2.64;77.48;100944.56;5052803;28;1305;-89
2022/03/03 07:27:00;;;;;;;;;;;;;;;-2.61;77.46;100949.53;5052733;28;1245;-89
2022/03/03 07:29:28;;;;;;;;;;;;;;;-2.58;77.53;100955.38;5054979;28;860;-88
2022/03/03 07:31:58;;;;;;;;;;;;;;;-2.59;77.78;100955.56;5054142;28;1159;-88
2022/03/03 07:34:30;;;;;;;;;;;;;;;-2.58;77.69;100955.38;5053820;28;1203;-88
2022/03/03 07:36:56;;;;;;;;;;;;;;;-2.53;78.01;100955.66;5056025;28;1298;-88
2022/03/03 07:39:30;;;;;;;;;;;;;;;-2.47;78.21;100959.47;5055072;28;1893;-88
2022/03/03 07:41:55;;;;;;;;;;;;;;;-2.32;78.01;100954.91;5055096;28;1239;-88
2022/03/03 07:44:20;;;;;;;;;;;;;;;-2.32;78.02;100949.56;5054346;28;1278;-89
2022/03/03 07:46:46;;;;;;;;;;;;;;;-2.21;78.16;100941.03;5054092;28;1286;-88
2022/03/03 07:49:12;;;;;;;;;;;;;;;-2.07;78.10;100928.63;5054633;28;1227;-88
2022/03/03 07:51:39;;;;;;;;;;;;;;;-2.01;78.00;100936.75;5056432;28;1074;-88
2022/03/03 07:54:05;;;;;;;;;;;;;;;-2.00;77.72;100933.06;5058262;28;1342;-88
2022/03/03 07:56:34;;;;;;;;;;;;;;;-1.94;77.53;100937.66;5054462;28;1261;-89
2022/03/03 07:59:04;;;;;;;;;;;;;;;-1.95;77.67;100933.31;5070058;28;1870;-89
2022/03/03 08:01:35;;;;;;;;;;;;;;;-1.87;77.99;100937.72;5061333;28;1503;-88
2022/03/03 08:04:01;;;;;;;;;;;;;;;-1.85;77.78;100934.84;5053704;28;1365;-89
2022/03/03 08:06:26;;;;;;;;;;;;;;;-1.87;77.99;100935.03;5053316;28;1257;-88
2022/03/03 08:08:55;;;;;;;;;;;;;;;-1.87;78.01;100940.41;5054904;28;975;-88
2022/03/03 08:11:22;;;;;;;;;;;;;;;-1.80;78.15;100948.56;5054302;28;1183;-88
2022/03/03 08:13:51;;;;;;;;;;;;;;;-1.73;77.96;100942.25;5054161;28;1156;-88
2022/03/03 08:16:17;;;;;;;;;;;;;;;-1.60;77.87;100949.59;5059215;28;1211;-88
2022/03/03 08:18:42;;;;;;;;;;;;;;;-1.60;77.66;100954.97;5057870;28;1945;-88
2022/03/03 08:21:07;;;;;;;;;;;;;;;-1.56;77.75;100934.78;5057577;28;814;-88
2022/03/03 08:23:33;;;;;;;;;;;;;;;-1.51;78.16;100935.03;5058495;28;885;-88
2022/03/03 08:25:59;;;;;;;;;;;;;;;-1.42;77.96;100936.56;5058134;28;1192;-88
2022/03/03 08:28:24;;;;;;;;;;;;;;;-1.40;77.88;100928.31;5056702;28;1569;-89
2022/03/03 08:31:03;;;;;;;;;;;;;;;-1.37;77.53;100936.84;5058321;28;1590;-88
2022/03/03 08:33:47;;;;;;;;;;;;;;;-1.27;77.63;100948.06;5050567;28;1549;-88
2022/03/03 08:36:20;;;;;;;;;;;;;;;-1.27;77.70;100940.00;5058379;28;1837;-88
2022/03/03 08:38:47;;;;;;;;;;;;;;;-1.19;77.39;100947.09;5043825;28;1894;-88
2022/03/03 08:41:13;;;;;;;;;;;;;;;-1.15;77.53;100937.66;5049469;28;1697;-88
2022/03/03 08:43:40;;;;;;;;;;;;;;;-1.05;77.41;100946.22;5057672;28;1338;-88
2022/03/03 08:46:05;;;;;;;;;;;;;;;-1.01;77.64;100939.41;5056980;28;1687;-88
2022/03/03 08:48:32;;;;;;;;;;;;;;;-1.03;77.78;100936.09;5056627;28;1346;-88
2022/03/03 08:50:58;;;;;;;;;;;;;;;-0.99;77.43;100939.22;5058707;28;1306;-88
2022/03/03 08:53:23;;;;;;;;;;;;;;;-0.93;77.43;100941.13;5056763;28;1385;-89
2022/03/03 08:55:48;;;;;;;;;;;;;;;-0.93;77.71;100930.38;5056422;28;1381;-88
2022/03/03 08:58:14;;;;;;;;;;;;;;;-0.92;77.66;100929.34;5056766;28;1957;-88
2022/03/03 09:00:40;;;;;;;;;;;;;;;-0.88;77.63;100927.94;5056605;28;1405;-88
2022/03/03 09:03:05;;;;;;;;;;;;;;;-0.86;77.82;100921.38;5055980;28;1365;-88
2022/03/03 09:05:30;;;;;;;;;;;;;;;-0.80;77.41;100925.94;5056376;28;1318;-88
2022/03/03 09:07:55;;;;;;;;;;;;;;;-0.78;77.92;100921.22;5056156;28;1652;-88
2022/03/03 09:10:21;;;;;;;;;;;;;;;-0.73;77.76;100903.66;5056146;28;1363;-88
2022/03/03 09:12:55;;;;;;;;;;;;;;;-0.68;77.90;100901.22;5056167;28;1410;-89
2022/03/03 09:15:24;;;;;;;;;;;;;;;-0.65;77.30;100890.88;5055656;28;1297;-88
2022/03/03 09:17:53;;;;;;;;;;;;;;;-0.58;77.66;100886.38;5055509;28;1889;-88
2022/03/03 09:20:18;;;;;;;;;;;;;;;-0.46;77.38;100887.47;5055729;28;1646;-88
2022/03/03 09:22:44;;;;;;;;;;;;;;;-0.39;77.38;100899.09;5055983;28;1380;-88
2022/03/03 09:25:10;;;;;;;;;;;;;;;-0.32;77.32;100892.91;5055608;28;1242;-89
2022/03/03 09:27:35;;;;;;;;;;;;;;;-0.30;77.40;100893.56;5055642;28;1333;-88
2022/03/03 09:30:01;;;;;;;;;;;;;;;-0.29;77.54;100895.22;5055777;28;1302;-88
2022/03/03 09:32:26;;;;;;;;;;;;;;;-0.22;77.08;100901.44;5055869;28;1364;-89
2022/03/03 09:34:51;;;;;;;;;;;;;;;-0.13;77.21;100895.69;5056629;28;1341;-89
2022/03/03 09:37:16;;;;;;;;;;;;;;;-0.05;76.76;100892.00;5054499;28;1532;-88
2022/03/03 09:39:43;;;;;;;;;;;;;;;-0.04;76.51;100888.28;5054874;28;1951;-89
2022/03/03 09:42:09;;;;;;;;;;;;;;;0.03;76.46;100894.50;5054869;28;1440;-89
2022/03/03 09:44:34;;;;;;;;;;;;;;;0.07;76.29;100898.47;5056125;28;829;-88
2022/03/03 09:47:00;;;;;;;;;;;;;;;0.12;76.23;100903.22;5054351;28;1420;-89
2022/03/03 09:49:25;;;;;;;;;;;;;;;0.17;76.10;100898.88;5055959;28;1733;-89
2022/03/03 09:51:50;;;;;;;;;;;;;;;0.24;75.79;100891.69;5054657;28;1195;-89
2022/03/03 09:54:16;;;;;;;;;;;;;;;0.25;75.80;100898.75;5055697;28;821;-89
2022/03/03 09:56:41;;;;;;;;;;;;;;;0.32;75.69;100898.75;5054699;28;1277;-89
2022/03/03 09:59:10;;;;;;;;;;;;;;;0.35;75.65;100901.00;5054427;28;1890;-90
2022/03/03 10:01:35;;;;;;;;;;;;;;;0.39;75.47;100894.19;5054181;28;1279;-89
2022/03/03 10:04:33;;;;;;;;;;;;;;;0.43;75.19;100889.22;5054165;28;1272;-89
2022/03/03 10:07:02;;;;;;;;;;;;;;;0.47;74.65;100895.88;5031813;28;1211;-89
2022/03/03 10:09:27;;;;;;;;;;;;;;;0.55;74.40;100888.41;5054343;28;1314;-89
2022/03/03 10:12:00;;;;;;;;;;;;;;;0.68;73.40;100888.41;5054527;28;1281;-89
2022/03/03 10:14:29;;;;;;;;;;;;;;;0.71;73.23;100887.19;5054027;28;1245;-89
2022/03/03 10:16:54;;;;;;;;;;;;;;;0.80;72.83;100880.56;5054079;28;1220;-89
2022/03/03 10:19:19;;;;;;;;;;;;;;;0.77;72.44;100883.66;5054202;28;1929;-90
2022/03/03 10:21:45;;;;;;;;;;;;;;;0.82;72.35;100883.88;5055258;28;991;-89
2022/03/03 10:24:15;;;;;;;;;;;;;;;1.00;72.39;100878.69;5053393;28;1464;-90
2022/03/03 10:26:40;;;;;;;;;;;;;;;1.06;71.87;100887.81;5036381;28;1371;-89
2022/03/03 10:29:15;;;;;;;;;;;;;;;1.06;71.70;100890.50;5035202;28;801;-89
2022/03/03 10:31:44;;;;;;;;;;;;;;;1.14;71.52;100891.09;5033746;28;1223;-89
2022/03/03 10:34:14;;;;;;;;;;;;;;;1.20;70.99;100885.91;5033517;28;1377;-89
2022/03/03 10:36:40;;;;;;;;;;;;;;;1.26;70.99;100885.09;5033421;28;1348;-89
2022/03/03 10:39:06;;;;;;;;;;;;;;;1.28;70.37;100881.13;5032645;28;1949;-89
2022/03/03 10:41:39;;;;;;;;;;;;;;;1.35;70.08;100881.97;5033544;28;1465;-90
2022/03/03 10:44:07;;;;;;;;;;;;;;;1.45;69.80;100886.88;5033489;28;1231;-89
2022/03/03 10:46:33;;;;;;;;;;;;;;;1.59;69.26;100883.13;5033160;28;1326;-89
2022/03/03 10:48:58;;;;;;;;;;;;;;;1.62;69.23;100885.38;5032141;28;1189;-89
2022/03/03 10:51:24;;;;;;;;;;;;;;;1.63;68.79;100875.44;5033581;28;785;-89
2022/03/03 10:53:50;;;;;;;;;;;;;;;1.69;68.36;100875.44;5032755;28;1386;-89
2022/03/03 10:56:16;;;;;;;;;;;;;;;1.89;68.75;100876.16;5033057;28;1323;-90
2022/03/03 10:58:49;;;;;;;;;;;;;;;1.85;68.24;100866.84;5033180;28;1894;-90
2022/03/03 11:01:15;;;;;;;;;;;;;;;1.86;68.20;100868.50;5032863;28;1211;-89
2022/03/03 11:03:41;;;;;;;;;;;;;;;1.90;68.24;100875.13;5032953;28;1479;-91
2022/03/03 11:06:06;;;;;;;;;;;;;;;1.89;68.58;100875.31;5033078;28;1264;-90
2022/03/03 11:08:32;;;;;;;;;;;;;;;1.83;68.68;100868.94;5033263;28;1198;-90
2022/03/03 11:10:57;;;;;;;;;;;;;;;1.90;68.46;100866.19;5033215;28;1173;-90
2022/03/03 11:13:23;;;;;;;;;;;;;;;1.93;68.48;100854.16;5033310;28;1240;-90
2022/03/03 11:15:49;;;;;;;;;;;;;;;2.07;68.36;100861.13;5034215;28;1280;-90
2022/03/03 11:18:18;;;;;;;;;;;;;;;2.11;68.16;100852.38;5032992;28;1941;-90
2022/03/03 11:20:44;;;;;;;;;;;;;;;2.16;68.20;100846.31;5032682;28;877;-90
2022/03/03 11:23:09;;;;;;;;;;;;;;;2.26;68.10;100861.03;5032953;28;1204;-90
2022/03/03 11:25:35;;;;;;;;;;;;;;;2.26;67.75;100852.09;5033242;28;1247;-90
2022/03/03 11:28:08;;;;;;;;;;;;;;;2.34;67.55;100849.13;5033049;28;1262;-90
2022/03/03 11:30:34;;;;;;;;;;;;;;;2.40;67.18;100845.53;5034153;28;923;-90
2022/03/03 11:33:19;;;;;;;;;;;;;;;2.58;66.48;100848.31;5032809;28;1327;-91
2022/03/03 11:35:49;;;;;;;;;;;;;;;2.75;65.58;100842.38;5071977;22;1803;-91
2022/03/03 11:38:15;;;;;;;;;;;;;;;2.86;64.45;100847.06;5032870;28;1898;-91
2022/03/03 11:40:50;;;;;;;;;;;;;;;3.00;62.80;100825.06;5032782;28;1243;-90
2022/03/03 11:43:15;;;;;;;;;;;;;;;3.25;61.49;100816.91;5033021;28;1334;-90
2022/03/03 11:45:47;;;;;;;;;;;;;;;3.40;60.44;100827.38;5032535;28;1208;-90
2022/03/03 11:48:14;;;;;;;;;;;;;;;3.57;60.14;100827.59;5049276;28;1242;-91
2022/03/03 11:50:40;;;;;;;;;;;;;;;3.35;59.93;100819.09;5052472;28;1313;-90
2022/03/03 11:53:05;;;;;;;;;;;;;;;3.48;59.67;100815.44;5053400;28;1229;-90
2022/03/03 11:55:33;;;;;;;;;;;;;;;3.68;58.92;100811.41;5053505;28;1176;-90
2022/03/03 11:58:00;;;;;;;;;;;;;;;3.70;58.75;100803.06;5053196;28;1937;-90
2022/03/03 12:00:26;;;;;;;;;;;;;;;3.64;58.90;100804.00;5053230;28;1476;-90
2022/03/03 12:03:02;;;;;;;;;;;;;;;3.80;58.48;100803.34;5053193;28;1407;-91
2022/03/03 12:05:27;;;;;;;;;;;;;;;3.68;58.31;100795.16;5053198;28;1385;-90
2022/03/03 12:07:56;;;;;;;;;;;;;;;3.67;58.57;100800.81;5053419;28;862;-90
2022/03/03 12:10:22;;;;;;;;;;;;;;;3.74;58.28;100796.94;5053148;28;1304;-90
2022/03/03 12:12:47;;;;;;;;;;;;;;;4.14;57.65;100789.13;5052949;28;1325;-90
2022/03/03 12:15:13;;;;;;;;;;;;;;;4.03;57.15;100798.03;5052909;28;1375;-90
2022/03/03 12:17:46;;;;;;;;;;;;;;;4.34;56.87;100794.22;5052890;28;1903;-91
2022/03/03 12:20:23;;;;;;;;;;;;;;;4.41;56.51;100791.44;5053058;28;1226;-90
2022/03/03 12:23:12;;;;;;;;;;;;;;;4.31;56.73;100788.47;5052721;28;1318;-89
2022/03/03 12:25:56;;;;;;;;;;;;;;;4.35;56.80;100786.91;5028088;28;1344;-91
2022/03/03 12:28:41;;;;;;;;;;;;;;;4.41;56.82;100786.00;5037582;28;872;-90
2022/03/03 12:31:25;;;;;;;;;;;;;;;4.59;56.49;100779.66;5052703;28;1203;-90
2022/03/03 12:33:56;;;;;;;;;;;;;;;4.46;56.55;100778.00;5052536;28;1334;-90
2022/03/03 12:36:22;;;;;;;;;;;;;;;4.54;56.20;100778.47;5052483;28;1330;-90
2022/03/03 12:38:47;;;;;;;;;;;;;;;4.64;55.60;100782.50;5052786;28;1905;-90
2022/03/03 12:41:12;;;;;;;;;;;;;;;4.52;55.53;100779.75;5052532;28;1175;-90
2022/03/03 12:43:38;;;;;;;;;;;;;;;4.37;55.37;100784.81;5035763;28;1356;-90
2022/03/03 12:46:04;;;;;;;;;;;;;;;4.60;55.05;100778.59;5052253;28;1347;-90
2022/03/03 12:48:30;;;;;;;;;;;;;;;4.65;54.27;100774.13;5052664;28;1436;-91